Time;durP1;ratioP1;P1;durP2;ratioP2;P2;SDS_P1;SDS_P2;PMS_P1;PMS_P2;Temp;Humidity;BMP_temperature;BMP_pressure;BME280_temperature;BME280_humidity;BME280_pressure;Samples;Min_cycle;Max_cycle;Signal;HPM_P1;HPM_P2
2023/07/26 00:01:39;;;;;;;3.87;1.57;;;13.30;99.90;;;;;;5063855;28;20195;-49
2023/07/26 00:04:07;;;;;;;5.57;1.43;;;13.20;99.90;;;;;;5051424;28;20279;-49
2023/07/26 00:06:34;;;;;;;2.50;1.60;;;13.20;99.90;;;;;;5067154;28;20206;-44
2023/07/26 00:09:02;;;;;;;3.67;1.20;;;13.20;99.90;;;;;;5061965;28;20225;-52
2023/07/26 00:11:30;;;;;;;3.70;1.70;;;13.20;99.90;;;;;;5066291;28;20729;-47
2023/07/26 00:13:57;;;;;;;6.17;1.37;;;13.20;99.90;;;;;;5068603;28;20246;-46
2023/07/26 00:16:23;;;;;;;2.07;1.30;;;13.10;99.90;;;;;;5073477;28;20215;-44
2023/07/26 00:18:50;;;;;;;4.60;1.53;;;13.10;99.90;;;;;;5047395;28;20253;-49
2023/07/26 00:21:17;;;;;;;2.73;1.33;;;13.10;99.90;;;;;;5070966;28;20725;-49
2023/07/26 00:23:44;;;;;;;2.37;2.17;;;13.10;99.90;;;;;;5070388;28;20983;-44
2023/07/26 00:26:12;;;;;;;3.00;1.70;;;13.00;99.90;;;;;;5078816;28;20610;-50
2023/07/26 00:28:38;;;;;;;3.23;1.50;;;13.00;99.90;;;;;;5069608;28;20303;-51
2023/07/26 00:31:07;;;;;;;6.33;1.50;;;13.00;99.90;;;;;;5075630;28;20214;-51
2023/07/26 00:33:34;;;;;;;3.73;1.63;;;13.00;99.90;;;;;;5071066;28;20185;-52
2023/07/26 00:36:00;;;;;;;2.87;1.63;;;13.00;99.90;;;;;;5051905;28;20190;-47
2023/07/26 00:38:27;;;;;;;4.73;1.50;;;13.00;99.90;;;;;;5079317;28;20588;-54
2023/07/26 00:40:54;;;;;;;3.40;1.27;;;13.00;99.90;;;;;;5074623;28;20210;-48
2023/07/26 00:43:23;;;;;;;1.80;1.20;;;13.00;99.90;;;;;;5067728;28;20201;-50
2023/07/26 00:45:50;;;;;;;2.93;1.70;;;13.00;99.90;;;;;;5066064;28;20200;-51
2023/07/26 00:48:20;;;;;;;3.67;1.80;;;13.00;99.90;;;;;;5070325;28;20218;-54
2023/07/26 00:50:48;;;;;;;2.80;1.83;;;13.00;99.90;;;;;;5051288;28;20801;-52
2023/07/26 00:53:15;;;;;;;2.17;1.40;;;13.00;99.90;;;;;;5065138;28;20226;-50
2023/07/26 00:55:43;;;;;;;3.47;1.60;;;12.90;99.90;;;;;;5058074;28;20190;-51
2023/07/26 00:58:11;;;;;;;2.80;1.40;;;12.90;99.90;;;;;;5048708;28;20191;-54
2023/07/26 01:00:42;;;;;;;2.90;1.60;;;12.90;99.90;;;;;;5039571;28;20246;-49
2023/07/26 01:03:08;;;;;;;3.33;1.30;;;12.90;99.90;;;;;;5066468;28;20237;-50
2023/07/26 01:05:39;;;;;;;2.17;1.30;;;12.90;99.90;;;;;;5043954;28;20237;-50
2023/07/26 01:08:14;;;;;;;6.73;2.70;;;12.80;99.90;;;;;;5058830;28;20351;-52
2023/07/26 01:10:48;;;;;;;2.90;1.33;;;12.80;99.90;;;;;;5050285;28;20814;-48
2023/07/26 01:13:20;;;;;;;7.53;1.70;;;12.80;99.90;;;;;;5068221;28;20199;-49
2023/07/26 01:15:50;;;;;;;1.97;1.47;;;12.80;99.90;;;;;;5066419;28;20206;-47
2023/07/26 01:18:18;;;;;;;2.90;1.73;;;12.80;99.90;;;;;;5076132;28;20251;-48
2023/07/26 01:20:45;;;;;;;18.13;2.10;;;12.80;99.90;;;;;;5030261;28;20284;-49
2023/07/26 01:23:13;;;;;;;3.30;1.40;;;12.80;99.90;;;;;;5073770;28;20622;-48
2023/07/26 01:25:40;;;;;;;4.30;1.63;;;12.80;99.90;;;;;;5042015;28;20202;-47
2023/07/26 01:28:06;;;;;;;5.13;1.40;;;12.80;99.90;;;;;;5048868;28;20363;-49
2023/07/26 01:30:34;;;;;;;2.83;1.40;;;12.80;99.90;;;;;;5063149;28;20229;-52
2023/07/26 01:33:05;;;;;;;5.20;1.50;;;12.80;99.90;;;;;;5071184;28;20548;-48
2023/07/26 01:35:32;;;;;;;2.33;1.90;;;12.80;99.90;;;;;;5054532;28;20197;-45
2023/07/26 01:38:02;;;;;;;3.17;1.50;;;12.80;99.90;;;;;;5054077;28;20736;-48
2023/07/26 01:40:30;;;;;;;2.40;1.23;;;12.90;99.90;;;;;;5067220;28;20256;-48
2023/07/26 01:42:58;;;;;;;1.93;1.43;;;12.90;99.90;;;;;;5067481;28;20194;-48
2023/07/26 01:45:24;;;;;;;2.93;1.67;;;12.90;99.90;;;;;;5071905;28;20222;-47
2023/07/26 01:47:54;;;;;;;2.80;1.50;;;12.90;99.90;;;;;;5062496;28;20736;-44
2023/07/26 01:50:21;;;;;;;5.10;1.37;;;12.90;99.90;;;;;;5067147;28;20210;-47
2023/07/26 01:52:48;;;;;;;4.13;1.47;;;12.90;99.90;;;;;;5039390;28;20347;-50
2023/07/26 01:55:15;;;;;;;4.07;1.90;;;12.80;99.90;;;;;;5063818;28;20863;-51
2023/07/26 01:57:43;;;;;;;2.47;1.47;;;12.80;99.90;;;;;;5053849;28;20263;-46
2023/07/26 02:00:11;;;;;;;4.10;1.83;;;12.80;99.90;;;;;;5042931;28;20217;-43
2023/07/26 02:02:40;;;;;;;3.77;1.30;;;12.80;99.90;;;;;;5061122;28;20252;-47
2023/07/26 02:05:08;;;;;;;5.90;1.90;;;12.70;99.90;;;;;;5058929;28;20193;-45
2023/07/26 02:07:35;;;;;;;2.33;1.50;;;12.70;99.90;;;;;;5025049;28;20229;-50
2023/07/26 02:10:02;;;;;;;3.53;1.60;;;12.70;99.90;;;;;;5054519;28;20211;-47
2023/07/26 02:12:29;;;;;;;4.70;1.97;;;12.70;99.90;;;;;;5056023;28;20194;-51
2023/07/26 02:14:59;;;;;;;2.43;1.27;;;12.60;99.90;;;;;;5065092;28;20247;-45
2023/07/26 02:17:26;;;;;;;6.30;1.50;;;12.60;99.90;;;;;;5044633;28;20289;-47
2023/07/26 02:19:52;;;;;;;5.67;2.20;;;12.60;99.90;;;;;;5077179;28;20206;-47
2023/07/26 02:22:19;;;;;;;2.33;1.30;;;12.70;99.90;;;;;;5057349;28;20284;-47
2023/07/26 02:24:46;;;;;;;5.03;2.30;;;12.70;99.90;;;;;;5053496;28;20190;-44
2023/07/26 02:27:13;;;;;;;3.03;1.57;;;12.70;99.90;;;;;;5058948;28;20207;-48
2023/07/26 02:29:40;;;;;;;4.80;1.70;;;12.60;99.90;;;;;;5061574;28;20308;-50
2023/07/26 02:32:08;;;;;;;4.80;1.80;;;12.60;99.90;;;;;;5052856;28;20183;-49
2023/07/26 02:34:37;;;;;;;4.37;1.70;;;12.60;99.90;;;;;;5057606;28;20202;-50
2023/07/26 02:37:04;;;;;;;3.57;1.43;;;12.60;99.90;;;;;;5042623;28;20206;-48
2023/07/26 02:39:31;;;;;;;3.37;1.50;;;12.60;99.90;;;;;;5054466;28;20291;-49
2023/07/26 02:41:59;;;;;;;2.20;1.40;;;12.50;99.90;;;;;;5046802;28;20226;-44
2023/07/26 02:44:25;;;;;;;4.53;1.80;;;12.50;99.90;;;;;;5047049;28;20263;-48
2023/07/26 02:46:52;;;;;;;3.57;1.80;;;12.60;99.90;;;;;;5071774;28;20251;-44
2023/07/26 02:49:20;;;;;;;3.47;1.50;;;12.60;99.90;;;;;;5064744;28;20217;-46
2023/07/26 02:51:47;;;;;;;2.50;1.67;;;12.60;99.90;;;;;;5084722;28;20225;-49
2023/07/26 02:54:14;;;;;;;3.97;1.87;;;12.60;99.90;;;;;;5048996;28;20230;-45
2023/07/26 02:56:41;;;;;;;3.43;1.70;;;12.60;99.90;;;;;;5069403;28;20202;-51
2023/07/26 02:59:07;;;;;;;1.97;1.50;;;12.50;99.90;;;;;;5040788;28;20202;-50
2023/07/26 03:01:34;;;;;;;2.20;2.00;;;12.50;99.90;;;;;;5071421;28;20191;-48
2023/07/26 03:04:01;;;;;;;5.03;2.17;;;12.50;99.90;;;;;;5043944;28;20885;-50
2023/07/26 03:06:29;;;;;;;2.83;1.50;;;12.50;99.90;;;;;;5062412;28;20239;-49
2023/07/26 03:08:56;;;;;;;1.63;1.50;;;12.40;99.90;;;;;;5062371;28;20279;-50
2023/07/26 03:11:24;;;;;;;3.93;1.90;;;12.40;99.90;;;;;;5059265;28;20276;-48
2023/07/26 03:13:51;;;;;;;3.30;1.53;;;12.40;99.90;;;;;;5062650;28;20673;-48
2023/07/26 03:16:18;;;;;;;3.30;1.60;;;12.40;99.90;;;;;;5063039;28;20197;-48
2023/07/26 03:18:45;;;;;;;2.80;1.60;;;12.40;99.90;;;;;;5068966;28;20206;-47
2023/07/26 03:21:12;;;;;;;2.23;1.60;;;12.40;99.90;;;;;;5064138;28;20283;-49
2023/07/26 03:23:40;;;;;;;2.83;1.70;;;12.40;99.90;;;;;;5069339;28;20247;-51
2023/07/26 03:26:06;;;;;;;5.90;2.47;;;12.40;99.90;;;;;;5038831;28;20235;-48
2023/07/26 03:28:33;;;;;;;2.33;1.73;;;12.40;99.90;;;;;;5071887;28;20207;-53
2023/07/26 03:31:00;;;;;;;2.10;1.40;;;12.40;99.90;;;;;;5041273;28;20238;-49
2023/07/26 03:33:27;;;;;;;3.50;1.80;;;12.40;99.90;;;;;;5056943;28;20286;-43
2023/07/26 03:35:54;;;;;;;3.40;1.87;;;12.30;99.90;;;;;;5067284;28;20254;-46
2023/07/26 03:38:21;;;;;;;2.77;1.50;;;12.30;99.90;;;;;;5088469;28;20720;-47
2023/07/26 03:40:49;;;;;;;2.77;1.30;;;12.30;99.90;;;;;;5040040;28;20202;-47
2023/07/26 03:43:16;;;;;;;3.13;1.80;;;12.30;99.90;;;;;;5052660;28;20596;-49
2023/07/26 03:45:43;;;;;;;1.90;1.60;;;12.30;99.90;;;;;;5071676;28;20198;-46
2023/07/26 03:48:09;;;;;;;2.80;1.70;;;12.30;99.90;;;;;;5059187;28;20875;-50
2023/07/26 03:50:36;;;;;;;4.00;1.60;;;12.30;99.90;;;;;;5064633;28;20409;-47
2023/07/26 03:53:03;;;;;;;3.63;1.67;;;12.30;99.90;;;;;;5080678;28;20182;-43
2023/07/26 03:55:30;;;;;;;5.63;1.80;;;12.30;99.90;;;;;;5055321;28;20206;-50
2023/07/26 03:57:58;;;;;;;2.30;1.80;;;12.30;99.90;;;;;;5081016;28;20190;-51
2023/07/26 04:00:25;;;;;;;3.53;1.70;;;12.30;99.90;;;;;;5065615;28;20221;-47
2023/07/26 04:02:53;;;;;;;2.43;1.83;;;12.30;99.90;;;;;;5071749;28;20198;-48
2023/07/26 04:05:19;;;;;;;4.33;2.07;;;12.30;99.90;;;;;;5044906;28;20183;-48
2023/07/26 04:07:46;;;;;;;3.77;2.13;;;12.40;99.90;;;;;;5064628;28;20738;-46
2023/07/26 04:10:12;;;;;;;3.67;2.00;;;12.40;99.90;;;;;;5065870;28;20626;-43
2023/07/26 04:12:39;;;;;;;4.30;1.60;;;12.40;99.90;;;;;;5047459;28;20289;-49
2023/07/26 04:15:08;;;;;;;2.27;1.60;;;12.40;99.90;;;;;;5072411;28;20744;-41
2023/07/26 04:17:35;;;;;;;4.57;2.00;;;12.50;99.90;;;;;;5064406;28;21035;-46
2023/07/26 04:20:02;;;;;;;4.27;1.40;;;12.50;99.90;;;;;;5055507;28;20210;-46
2023/07/26 04:22:29;;;;;;;2.80;1.63;;;12.50;99.90;;;;;;5062017;28;20316;-45
2023/07/26 04:24:56;;;;;;;2.93;1.50;;;12.50;99.90;;;;;;5069177;28;20220;-45
2023/07/26 04:27:23;;;;;;;2.47;1.70;;;12.60;99.90;;;;;;5062172;28;20218;-42
2023/07/26 04:29:49;;;;;;;4.87;2.00;;;12.60;99.90;;;;;;5071384;28;20299;-43
2023/07/26 04:32:17;;;;;;;3.10;1.87;;;12.60;99.90;;;;;;5071120;28;22818;-44
2023/07/26 04:34:44;;;;;;;2.10;1.67;;;12.70;99.90;;;;;;5099743;28;20235;-43
2023/07/26 04:37:11;;;;;;;3.87;1.57;;;12.70;99.90;;;;;;5070095;28;20712;-48
2023/07/26 04:39:38;;;;;;;4.67;2.00;;;12.70;99.90;;;;;;5089054;28;20233;-46
2023/07/26 04:42:05;;;;;;;3.97;1.90;;;12.80;99.90;;;;;;5061357;28;20273;-43
2023/07/26 04:44:32;;;;;;;3.77;1.70;;;12.80;99.90;;;;;;5052001;28;20260;-47
2023/07/26 04:46:59;;;;;;;3.53;2.00;;;12.90;99.90;;;;;;5076281;28;20696;-46
2023/07/26 04:49:27;;;;;;;2.80;1.70;;;12.90;99.90;;;;;;5080278;28;20218;-44
2023/07/26 04:51:54;;;;;;;3.27;1.63;;;12.90;99.90;;;;;;5073354;28;20202;-44
2023/07/26 04:54:20;;;;;;;3.00;1.93;;;12.90;99.90;;;;;;5053344;28;20581;-48
2023/07/26 04:56:47;;;;;;;3.97;1.73;;;12.90;99.90;;;;;;5061690;28;20226;-44
2023/07/26 04:59:15;;;;;;;5.97;1.90;;;12.90;99.90;;;;;;5046891;28;22762;-50
2023/07/26 05:01:42;;;;;;;2.20;1.67;;;12.90;99.90;;;;;;5073080;28;20203;-46
2023/07/26 05:04:09;;;;;;;3.37;1.60;;;12.90;99.90;;;;;;5072614;28;20319;-50
2023/07/26 05:06:38;;;;;;;2.40;1.80;;;12.90;99.90;;;;;;5091064;28;20678;-47
2023/07/26 05:09:05;;;;;;;2.53;1.93;;;13.00;99.90;;;;;;5058077;28;20223;-50
2023/07/26 05:11:31;;;;;;;3.50;1.70;;;13.00;99.90;;;;;;5082011;28;20198;-53
2023/07/26 05:13:58;;;;;;;2.40;1.80;;;13.00;99.90;;;;;;5039799;28;20299;-47
2023/07/26 05:16:25;;;;;;;4.90;1.80;;;13.00;99.90;;;;;;5075497;28;20267;-50
2023/07/26 05:18:53;;;;;;;4.83;1.80;;;13.00;99.90;;;;;;5071172;28;20217;-51
2023/07/26 05:21:19;;;;;;;6.27;2.40;;;13.00;99.90;;;;;;5057269;28;20194;-51
2023/07/26 05:23:48;;;;;;;5.27;2.07;;;13.00;99.90;;;;;;5078243;28;20286;-44
2023/07/26 05:26:14;;;;;;;9.33;2.50;;;13.00;99.90;;;;;;5074730;28;20887;-48
2023/07/26 05:28:41;;;;;;;4.50;2.13;;;13.10;99.90;;;;;;5061342;28;20779;-46
2023/07/26 05:31:08;;;;;;;3.13;1.83;;;13.20;99.90;;;;;;5055855;28;20299;-49
2023/07/26 05:33:35;;;;;;;4.80;2.23;;;13.20;99.90;;;;;;5075763;28;20256;-49
2023/07/26 05:36:01;;;;;;;4.47;1.90;;;13.20;99.90;;;;;;5063530;28;21790;-47
2023/07/26 05:38:29;;;;;;;4.37;1.90;;;13.30;99.90;;;;;;5079872;28;20216;-49
2023/07/26 05:41:03;;;;;;;2.20;1.63;;;13.30;99.90;;;;;;5083146;28;20213;-43
2023/07/26 05:43:30;;;;;;;5.43;1.80;;;13.40;99.90;;;;;;5080898;28;20247;-48
2023/07/26 05:45:57;;;;;;;2.87;1.70;;;13.40;99.90;;;;;;5041960;28;20294;-47
2023/07/26 05:48:24;;;;;;;4.87;1.83;;;13.50;99.90;;;;;;5075941;28;20660;-47
2023/07/26 05:50:51;;;;;;;3.37;1.73;;;13.50;99.90;;;;;;5072657;28;20240;-48
2023/07/26 05:53:17;;;;;;;7.63;2.10;;;13.50;99.90;;;;;;5068225;28;20221;-45
2023/07/26 05:55:45;;;;;;;5.10;1.80;;;13.60;99.90;;;;;;5061580;28;20221;-47
2023/07/26 05:58:14;;;;;;;2.83;2.20;;;13.60;99.90;;;;;;5080574;28;20197;-49
2023/07/26 06:00:40;;;;;;;3.47;1.67;;;13.70;99.90;;;;;;5063183;28;20249;-49
2023/07/26 06:03:07;;;;;;;3.97;1.63;;;13.70;99.90;;;;;;5066310;28;20255;-48
2023/07/26 06:05:34;;;;;;;4.97;1.87;;;13.80;99.90;;;;;;5071672;28;20675;-48
2023/07/26 06:08:01;;;;;;;3.63;1.47;;;13.80;99.90;;;;;;5077666;28;20290;-51
2023/07/26 06:10:27;;;;;;;4.07;1.73;;;13.90;99.90;;;;;;5064797;28;20268;-47
2023/07/26 06:12:54;;;;;;;6.23;2.07;;;13.90;99.90;;;;;;5069412;28;20209;-48
2023/07/26 06:15:22;;;;;;;3.20;1.77;;;14.00;99.90;;;;;;5071662;28;20670;-49
2023/07/26 06:17:51;;;;;;;3.83;1.80;;;14.00;99.90;;;;;;5045420;28;20335;-51
2023/07/26 06:20:18;;;;;;;3.43;1.60;;;14.10;99.90;;;;;;5064372;28;20222;-49
2023/07/26 06:22:45;;;;;;;4.57;1.73;;;14.10;99.90;;;;;;5065514;28;20621;-52
2023/07/26 06:25:11;;;;;;;1.80;1.67;;;14.20;99.90;;;;;;5054319;28;20229;-43
2023/07/26 06:27:38;;;;;;;7.73;1.73;;;14.30;99.90;;;;;;5085632;28;20209;-48
2023/07/26 06:30:06;;;;;;;3.33;1.67;;;14.40;99.90;;;;;;5052363;28;20614;-46
2023/07/26 06:32:35;;;;;;;4.47;1.80;;;14.40;99.90;;;;;;5051440;28;20202;-45
2023/07/26 06:35:02;;;;;;;3.20;1.50;;;14.50;99.90;;;;;;5038219;28;20925;-49
2023/07/26 06:37:28;;;;;;;4.37;1.80;;;14.50;99.90;;;;;;5065998;28;20206;-42
2023/07/26 06:39:55;;;;;;;4.43;1.63;;;14.50;99.90;;;;;;5056704;28;20230;-47
2023/07/26 06:42:22;;;;;;;3.00;1.50;;;14.50;99.90;;;;;;5055596;28;20222;-43
2023/07/26 06:44:49;;;;;;;4.07;1.43;;;14.50;99.90;;;;;;5071050;28;20178;-45
2023/07/26 06:47:16;;;;;;;3.83;1.70;;;14.60;99.90;;;;;;5052623;28;20226;-43
2023/07/26 06:49:44;;;;;;;3.67;1.83;;;14.60;99.90;;;;;;5074767;28;20242;-51
2023/07/26 06:52:11;;;;;;;3.03;1.60;;;14.70;99.90;;;;;;5077984;28;20216;-47
2023/07/26 06:54:38;;;;;;;2.77;1.70;;;14.70;99.90;;;;;;5064089;28;20282;-50
2023/07/26 06:57:06;;;;;;;7.67;1.60;;;14.80;99.90;;;;;;5070195;28;20739;-44
2023/07/26 06:59:33;;;;;;;4.50;1.57;;;14.80;99.90;;;;;;5086063;28;20206;-47
2023/07/26 07:01:59;;;;;;;3.63;1.43;;;14.90;99.90;;;;;;5067807;28;20258;-49
2023/07/26 07:04:26;;;;;;;3.87;1.97;;;15.00;99.90;;;;;;5052521;28;20795;-47
2023/07/26 07:06:54;;;;;;;5.60;1.73;;;15.00;99.90;;;;;;5068007;28;20252;-50
2023/07/26 07:09:21;;;;;;;6.23;1.73;;;15.10;99.90;;;;;;5056225;28;20736;-45
2023/07/26 07:11:48;;;;;;;4.70;1.90;;;15.20;99.90;;;;;;5061494;28;20258;-48
2023/07/26 07:14:15;;;;;;;3.80;1.60;;;15.20;99.90;;;;;;5082531;28;20271;-49
2023/07/26 07:16:42;;;;;;;5.50;1.53;;;15.30;99.90;;;;;;5060502;28;20999;-48
2023/07/26 07:19:09;;;;;;;2.33;1.47;;;15.40;99.90;;;;;;5063141;28;20233;-45
2023/07/26 07:21:36;;;;;;;4.50;1.43;;;15.40;99.90;;;;;;5069294;28;20234;-51
2023/07/26 07:24:05;;;;;;;5.37;1.90;;;15.50;99.90;;;;;;5067257;28;20252;-52
2023/07/26 07:26:32;;;;;;;4.83;1.40;;;15.70;99.90;;;;;;5062836;28;20194;-52
2023/07/26 07:28:59;;;;;;;5.20;1.93;;;15.70;99.90;;;;;;5065481;28;20261;-49
2023/07/26 07:31:26;;;;;;;4.30;1.50;;;15.70;99.90;;;;;;5074545;28;20271;-42
2023/07/26 07:33:53;;;;;;;2.53;1.57;;;15.70;99.90;;;;;;5064614;28;20926;-48
2023/07/26 07:36:20;;;;;;;6.43;1.80;;;15.60;99.90;;;;;;5085854;28;20225;-49
2023/07/26 07:38:47;;;;;;;3.63;1.47;;;15.60;99.90;;;;;;5073693;28;20221;-46
2023/07/26 07:41:16;;;;;;;3.90;1.43;;;15.60;99.90;;;;;;5063843;28;20695;-47
2023/07/26 07:43:42;;;;;;;5.27;1.13;;;15.60;99.90;;;;;;5074785;28;20223;-47
2023/07/26 07:46:09;;;;;;;5.73;1.87;;;15.60;99.90;;;;;;5065603;28;20198;-43
2023/07/26 07:48:38;;;;;;;2.60;1.50;;;15.60;99.90;;;;;;5070650;28;20255;-47
2023/07/26 07:51:04;;;;;;;3.10;1.93;;;15.70;99.90;;;;;;5060532;28;20673;-46
2023/07/26 07:53:31;;;;;;;1.80;1.43;;;15.80;99.90;;;;;;5056273;28;20525;-48
2023/07/26 07:55:58;;;;;;;2.97;1.50;;;15.90;99.90;;;;;;5072578;28;20217;-47
2023/07/26 07:58:27;;;;;;;4.13;1.37;;;15.90;99.90;;;;;;5065840;28;20271;-45
2023/07/26 08:00:58;;;;;;;2.27;1.23;;;15.90;99.90;;;;;;5073564;28;20191;-47
2023/07/26 08:03:24;;;;;;;2.03;1.20;;;15.90;99.90;;;;;;5064423;28;20202;-45
2023/07/26 08:05:51;;;;;;;3.93;1.20;;;16.00;99.90;;;;;;5052276;28;20209;-46
2023/07/26 08:08:18;;;;;;;2.17;1.13;;;16.00;99.90;;;;;;5073760;28;20194;-46
2023/07/26 08:10:45;;;;;;;5.73;1.43;;;16.00;99.90;;;;;;5079067;28;20241;-48
2023/07/26 08:13:12;;;;;;;5.97;1.50;;;16.20;99.90;;;;;;5073398;28;20316;-49
2023/07/26 08:15:40;;;;;;;2.67;1.83;;;16.10;99.90;;;;;;5069460;28;20306;-48
2023/07/26 08:18:07;;;;;;;3.03;1.37;;;16.20;99.90;;;;;;5070840;28;20563;-47
2023/07/26 08:20:34;;;;;;;4.13;1.40;;;16.30;99.90;;;;;;5046477;28;20245;-51
2023/07/26 08:23:01;;;;;;;2.93;1.10;;;16.50;99.90;;;;;;5078722;28;20601;-49
2023/07/26 08:25:28;;;;;;;4.83;1.70;;;16.60;99.90;;;;;;5066296;28;20247;-46
2023/07/26 08:27:55;;;;;;;1.63;1.20;;;16.60;99.90;;;;;;5061375;28;23683;-47
2023/07/26 08:30:22;;;;;;;3.73;1.43;;;16.70;99.90;;;;;;5067008;28;20279;-49
2023/07/26 08:32:51;;;;;;;3.33;1.40;;;16.90;99.90;;;;;;5068771;28;20656;-51
2023/07/26 08:35:18;;;;;;;1.80;1.40;;;17.00;99.90;;;;;;5063689;28;20198;-46
2023/07/26 08:37:45;;;;;;;4.33;1.30;;;17.00;99.90;;;;;;5052414;28;20597;-49
2023/07/26 08:40:13;;;;;;;2.03;1.07;;;17.10;99.90;;;;;;5071420;28;20270;-49
2023/07/26 08:42:40;;;;;;;1.57;0.93;;;17.10;99.90;;;;;;5064921;28;20283;-44
2023/07/26 08:45:09;;;;;;;3.63;1.40;;;17.20;99.90;;;;;;5072979;28;20307;-46
2023/07/26 08:47:36;;;;;;;1.40;1.00;;;17.30;99.90;;;;;;5048198;28;20322;-47
2023/07/26 08:50:05;;;;;;;3.47;1.23;;;17.20;99.90;;;;;;5063505;28;20272;-48
2023/07/26 08:52:33;;;;;;;2.20;1.17;;;17.10;99.90;;;;;;5050239;28;20950;-44
2023/07/26 08:55:01;;;;;;;2.23;1.37;;;17.10;99.90;;;;;;5068192;28;20283;-53
2023/07/26 08:57:28;;;;;;;2.10;0.93;;;17.00;99.90;;;;;;5063463;28;20687;-49
2023/07/26 08:59:55;;;;;;;1.70;1.00;;;17.00;99.90;;;;;;5050624;28;20286;-47
2023/07/26 09:02:23;;;;;;;0.87;0.60;;;17.10;99.90;;;;;;5059752;28;20650;-48
2023/07/26 09:04:50;;;;;;;0.93;0.70;;;17.20;99.90;;;;;;5064965;28;20795;-47
2023/07/26 09:07:18;;;;;;;1.47;0.90;;;17.40;99.90;;;;;;5055792;28;20778;-47
2023/07/26 09:09:45;;;;;;;2.17;1.17;;;17.40;99.90;;;;;;5060957;28;20236;-50
2023/07/26 09:12:25;;;;;;;1.30;0.90;;;17.30;99.90;;;;;;5065368;28;20275;-49
2023/07/26 09:14:54;;;;;;;1.53;0.93;;;17.40;99.90;;;;;;5048826;28;20691;-49
2023/07/26 09:17:22;;;;;;;1.03;0.80;;;17.40;99.90;;;;;;5047386;28;20213;-47
2023/07/26 09:19:53;;;;;;;1.90;0.80;;;17.40;99.90;;;;;;5068514;28;20285;-50
2023/07/26 09:22:22;;;;;;;0.60;0.60;;;17.30;99.90;;;;;;5070337;28;20194;-51
2023/07/26 09:24:50;;;;;;;1.13;0.97;;;17.40;99.90;;;;;;5048795;28;20230;-49
2023/07/26 09:27:19;;;;;;;0.80;0.77;;;17.30;99.90;;;;;;5056374;28;20335;-48
2023/07/26 09:29:57;;;;;;;1.33;0.90;;;17.20;99.90;;;;;;5057796;28;20218;-50
2023/07/26 09:32:28;;;;;;;0.73;0.70;;;17.30;99.90;;;;;;5059883;28;20201;-49
2023/07/26 09:34:59;;;;;;;1.60;0.60;;;17.40;99.90;;;;;;5063868;28;20220;-51
2023/07/26 09:37:28;;;;;;;0.67;0.60;;;17.50;99.90;;;;;;5071041;28;20194;-50
2023/07/26 09:39:54;;;;;;;0.60;0.60;;;17.70;99.90;;;;;;5041832;28;20217;-50
2023/07/26 09:42:22;;;;;;;2.37;1.00;;;17.70;99.90;;;;;;5069794;28;20198;-47
2023/07/26 09:44:56;;;;;;;2.27;0.53;;;17.70;99.90;;;;;;5052574;28;20199;-49
2023/07/26 09:47:35;;;;;;;0.50;0.50;;;17.80;99.90;;;;;;5046973;28;20984;-45
2023/07/26 09:50:02;;;;;;;1.43;0.70;;;17.90;99.90;;;;;;5069197;28;20226;-46
2023/07/26 09:52:31;;;;;;;1.13;0.50;;;18.10;99.90;;;;;;5058444;28;20194;-46
2023/07/26 09:55:00;;;;;;;1.03;0.50;;;18.10;99.90;;;;;;5053920;28;20217;-49
2023/07/26 09:57:29;;;;;;;0.80;0.70;;;18.00;99.90;;;;;;5049937;28;20203;-50
2023/07/26 09:59:59;;;;;;;0.77;0.70;;;18.00;99.90;;;;;;5048978;28;20305;-44
2023/07/26 10:02:27;;;;;;;0.90;0.70;;;18.10;99.90;;;;;;5054690;28;20210;-47
2023/07/26 10:04:57;;;;;;;0.80;0.70;;;18.20;99.90;;;;;;5068413;28;20294;-46
2023/07/26 10:07:26;;;;;;;0.60;0.60;;;18.20;99.90;;;;;;5064017;28;20200;-50
2023/07/26 10:09:55;;;;;;;0.90;0.80;;;18.10;99.90;;;;;;5036995;28;23912;-45
2023/07/26 10:12:25;;;;;;;2.07;1.07;;;18.20;99.90;;;;;;5052063;28;20297;-50
2023/07/26 10:14:56;;;;;;;1.30;0.70;;;18.30;99.90;;;;;;5055178;28;20209;-46
2023/07/26 10:17:25;;;;;;;1.13;0.60;;;18.30;99.90;;;;;;5054645;28;20202;-47
2023/07/26 10:19:53;;;;;;;0.60;0.60;;;18.40;99.90;;;;;;5056961;28;20211;-49
2023/07/26 10:22:21;;;;;;;1.77;0.73;;;18.30;99.90;;;;;;5071364;28;20283;-47
2023/07/26 10:24:47;;;;;;;1.77;0.67;;;18.10;99.90;;;;;;5059464;28;20997;-49
2023/07/26 10:27:16;;;;;;;0.53;0.50;;;18.20;99.90;;;;;;5040881;28;20351;-49
2023/07/26 10:29:43;;;;;;;1.00;1.00;;;18.40;99.90;;;;;;5057051;28;20299;-46
2023/07/26 10:32:11;;;;;;;1.87;0.57;;;18.50;99.90;;;;;;5060528;28;20222;-50
2023/07/26 10:34:38;;;;;;;1.70;0.80;;;18.60;99.90;;;;;;5059961;28;20229;-46
2023/07/26 10:37:15;;;;;;;0.70;0.67;;;18.70;99.90;;;;;;5061725;28;20401;-47
2023/07/26 10:39:42;;;;;;;1.37;0.67;;;18.80;99.90;;;;;;5061371;28;20761;-47
2023/07/26 10:42:23;;;;;;;1.83;0.60;;;18.80;99.90;;;;;;5049472;28;20960;-49
2023/07/26 10:44:50;;;;;;;2.50;0.70;;;18.80;99.90;;;;;;5080212;28;20197;-46
2023/07/26 10:47:17;;;;;;;0.60;0.60;;;18.80;99.90;;;;;;5053540;28;20225;-46
2023/07/26 10:49:46;;;;;;;1.10;0.70;;;18.70;99.90;;;;;;5072020;28;20339;-58
2023/07/26 10:52:14;;;;;;;1.10;0.70;;;18.60;99.90;;;;;;5068626;28;20210;-46
2023/07/26 10:54:42;;;;;;;0.77;0.77;;;18.40;99.90;;;;;;5074642;28;20269;-56
2023/07/26 10:57:20;;;;;;;0.73;0.60;;;18.30;99.90;;;;;;5057213;28;20340;-53
2023/07/26 10:59:57;;;;;;;1.50;0.60;;;18.20;99.90;;;;;;5060585;28;20292;-57
2023/07/26 11:02:38;;;;;;;1.03;0.67;;;18.30;99.90;;;;;;5063669;28;20700;-54
2023/07/26 11:05:06;;;;;;;0.60;0.60;;;18.50;99.90;;;;;;5055558;28;20217;-52
2023/07/26 11:08:03;;;;;;;1.93;1.00;;;18.50;99.90;;;;;;5065685;28;20217;-56
2023/07/26 11:10:34;;;;;;;0.90;0.70;;;18.70;99.90;;;;;;5064289;28;20218;-52
2023/07/26 11:13:14;;;;;;;0.40;0.40;;;18.70;99.90;;;;;;5049752;28;20209;-56
2023/07/26 11:15:51;;;;;;;0.50;0.50;;;18.60;99.90;;;;;;5058534;28;20208;-58
2023/07/26 11:18:20;;;;;;;1.63;0.60;;;18.60;99.90;;;;;;5060520;28;20563;-49
2023/07/26 11:20:48;;;;;;;2.40;0.60;;;18.60;99.90;;;;;;5062101;28;20708;-59
2023/07/26 11:23:17;;;;;;;1.73;0.60;;;18.80;99.90;;;;;;5075941;28;20226;-55
2023/07/26 11:25:45;;;;;;;1.47;0.67;;;19.00;99.90;;;;;;5067979;28;20280;-58
2023/07/26 11:28:12;;;;;;;2.80;0.90;;;19.10;99.90;;;;;;5044272;28;20672;-57
2023/07/26 11:30:40;;;;;;;0.73;0.60;;;19.20;99.90;;;;;;5058571;28;20689;-59
2023/07/26 11:33:09;;;;;;;1.73;0.80;;;19.50;99.90;;;;;;5072990;28;21393;-55
2023/07/26 11:35:40;;;;;;;4.77;0.70;;;19.40;99.90;;;;;;5096089;28;20191;-59
2023/07/26 11:38:08;;;;;;;1.60;0.70;;;19.40;99.90;;;;;;5071934;28;20277;-58
2023/07/26 11:40:39;;;;;;;1.53;0.70;;;19.40;99.90;;;;;;5068811;28;20250;-60
2023/07/26 11:43:06;;;;;;;0.83;0.70;;;19.60;99.90;;;;;;5055031;28;20198;-54
2023/07/26 11:45:34;;;;;;;1.47;0.60;;;19.60;99.90;;;;;;5077027;28;20908;-59
2023/07/26 11:48:00;;;;;;;0.60;0.60;;;19.40;99.90;;;;;;5070571;28;20226;-54
2023/07/26 11:50:29;;;;;;;1.50;0.67;;;19.20;99.90;;;;;;5075673;28;20766;-59
2023/07/26 11:53:05;;;;;;;0.83;0.80;;;19.00;99.90;;;;;;5066654;28;20218;-50
2023/07/26 11:55:32;;;;;;;1.50;0.60;;;18.70;99.90;;;;;;5075377;28;20549;-59
2023/07/26 11:58:04;;;;;;;2.20;0.60;;;18.60;99.90;;;;;;5053773;28;20202;-54
2023/07/26 12:00:33;;;;;;;0.77;0.60;;;18.40;99.90;;;;;;5073207;28;20599;-55
2023/07/26 12:03:01;;;;;;;1.23;0.60;;;18.00;99.90;;;;;;5075673;28;20198;-57
2023/07/26 12:05:29;;;;;;;0.40;0.33;;;17.80;99.90;;;;;;5074296;28;20198;-53
2023/07/26 12:07:58;;;;;;;1.93;0.40;;;17.70;99.90;;;;;;5071373;28;20964;-55
2023/07/26 12:10:31;;;;;;;4.53;0.67;;;17.40;99.90;;;;;;5079272;28;20218;-56
2023/07/26 12:12:59;;;;;;;0.67;0.53;;;17.30;99.90;;;;;;5050899;28;20238;-52
2023/07/26 12:15:27;;;;;;;7.37;0.70;;;17.10;99.90;;;;;;5065858;28;20209;-56
2023/07/26 12:17:55;;;;;;;0.70;0.70;;;17.10;99.90;;;;;;5073973;28;20221;-50
2023/07/26 12:20:22;;;;;;;0.90;0.80;;;17.00;99.90;;;;;;5082338;28;20586;-53
2023/07/26 12:22:55;;;;;;;1.27;0.40;;;17.00;99.90;;;;;;5068690;28;20202;-54
2023/07/26 12:25:32;;;;;;;2.43;0.40;;;17.30;99.90;;;;;;5061814;28;20668;-55
2023/07/26 12:27:59;;;;;;;0.63;0.40;;;17.20;99.90;;;;;;5067001;28;20209;-50
2023/07/26 12:30:27;;;;;;;0.40;0.40;;;17.40;99.90;;;;;;5049359;28;20246;-48
2023/07/26 12:33:09;;;;;;;0.50;0.50;;;17.70;99.90;;;;;;5068215;28;20216;-52
2023/07/26 12:35:36;;;;;;;1.43;0.63;;;17.80;99.90;;;;;;5066962;28;20198;-53
2023/07/26 12:38:10;;;;;;;1.47;0.80;;;18.00;99.90;;;;;;5066995;28;20213;-58
2023/07/26 12:40:37;;;;;;;1.27;0.40;;;18.20;99.90;;;;;;5074022;28;20993;-55
2023/07/26 12:43:22;;;;;;;1.00;0.80;;;18.30;99.90;;;;;;5083017;28;20217;-60
2023/07/26 12:45:49;;;;;;;0.67;0.60;;;18.30;99.90;;;;;;5070620;28;20222;-50
2023/07/26 12:48:16;;;;;;;0.67;0.67;;;18.40;99.90;;;;;;5058368;28;20324;-58
2023/07/26 12:50:43;;;;;;;0.57;0.50;;;18.30;99.90;;;;;;5057336;28;20305;-60
2023/07/26 12:53:13;;;;;;;1.60;0.80;;;18.40;99.90;;;;;;5063431;28;20298;-59